sensor_id;sensor_type;location;lat;lon;timestamp;P1;durP1;ratioP1;P2;durP2;ratioP2
20084;SDS011;10202;48.474;9.138;2023-06-19T00:39:51;10.57;;;6.43;;
20084;SDS011;10202;48.474;9.138;2023-06-19T00:42:19;9.52;;;6.57;;
20084;SDS011;10202;48.474;9.138;2023-06-19T00:44:47;8.73;;;6.70;;
20084;SDS011;10202;48.474;9.138;2023-06-19T00:47:12;8.70;;;6.40;;
20084;SDS011;10202;48.474;9.138;2023-06-19T00:49:38;8.65;;;6.35;;
20084;SDS011;10202;48.474;9.138;2023-06-19T00:52:04;7.30;;;6.47;;
20084;SDS011;10202;48.474;9.138;2023-06-19T00:54:36;7.72;;;6.93;;
20084;SDS011;10202;48.474;9.138;2023-06-19T00:57:07;6.97;;;6.28;;
20084;SDS011;10202;48.474;9.138;2023-06-19T00:59:32;9.00;;;6.93;;
20084;SDS011;10202;48.474;9.138;2023-06-19T01:02:02;7.20;;;6.25;;
20084;SDS011;10202;48.474;9.138;2023-06-19T01:04:31;8.10;;;6.55;;
20084;SDS011;10202;48.474;9.138;2023-06-19T01:07:06;7.47;;;6.53;;
20084;SDS011;10202;48.474;9.138;2023-06-19T01:09:43;7.97;;;6.72;;
20084;SDS011;10202;48.474;9.138;2023-06-19T01:12:16;11.18;;;6.57;;
20084;SDS011;10202;48.474;9.138;2023-06-19T01:14:57;10.20;;;6.82;;
20084;SDS011;10202;48.474;9.138;2023-06-19T01:17:28;9.50;;;6.80;;
20084;SDS011;10202;48.474;9.138;2023-06-19T01:19:57;8.93;;;6.88;;
20084;SDS011;10202;48.474;9.138;2023-06-19T01:22:37;8.95;;;6.70;;
20084;SDS011;10202;48.474;9.138;2023-06-19T01:25:08;7.20;;;6.47;;
20084;SDS011;10202;48.474;9.138;2023-06-19T01:27:35;9.82;;;6.68;;
20084;SDS011;10202;48.474;9.138;2023-06-19T01:30:01;9.05;;;7.43;;
20084;SDS011;10202;48.474;9.138;2023-06-19T01:32:30;8.18;;;7.28;;
20084;SDS011;10202;48.474;9.138;2023-06-19T01:35:13;10.88;;;6.82;;
20084;SDS011;10202;48.474;9.138;2023-06-19T01:37:45;9.02;;;7.25;;
20084;SDS011;10202;48.474;9.138;2023-06-19T01:40:14;8.65;;;7.07;;
20084;SDS011;10202;48.474;9.138;2023-06-19T01:42:45;10.27;;;6.68;;
20084;SDS011;10202;48.474;9.138;2023-06-19T01:45:13;9.02;;;7.22;;
20084;SDS011;10202;48.474;9.138;2023-06-19T01:47:39;9.90;;;7.15;;
20084;SDS011;10202;48.474;9.138;2023-06-19T01:50:05;8.70;;;6.80;;
20084;SDS011;10202;48.474;9.138;2023-06-19T01:52:33;8.13;;;6.40;;
20084;SDS011;10202;48.474;9.138;2023-06-19T01:54:59;8.15;;;6.53;;
20084;SDS011;10202;48.474;9.138;2023-06-19T01:57:28;10.15;;;6.90;;
20084;SDS011;10202;48.474;9.138;2023-06-19T01:59:58;11.93;;;6.30;;
20084;SDS011;10202;48.474;9.138;2023-06-19T02:02:26;9.50;;;6.50;;
20084;SDS011;10202;48.474;9.138;2023-06-19T02:04:51;8.90;;;5.97;;
20084;SDS011;10202;48.474;9.138;2023-06-19T02:07:17;7.47;;;6.13;;
20084;SDS011;10202;48.474;9.138;2023-06-19T02:09:49;8.48;;;6.00;;
20084;SDS011;10202;48.474;9.138;2023-06-19T02:12:21;6.55;;;5.78;;
20084;SDS011;10202;48.474;9.138;2023-06-19T02:14:46;8.30;;;5.43;;
20084;SDS011;10202;48.474;9.138;2023-06-19T04:27:36;5.68;;;4.05;;
20084;SDS011;10202;48.474;9.138;2023-06-19T04:30:04;5.47;;;3.42;;
20084;SDS011;10202;48.474;9.138;2023-06-19T04:32:32;5.07;;;3.78;;
20084;SDS011;10202;48.474;9.138;2023-06-19T04:35:02;4.93;;;3.90;;
20084;SDS011;10202;48.474;9.138;2023-06-19T04:37:32;4.10;;;3.55;;
20084;SDS011;10202;48.474;9.138;2023-06-19T04:40:01;6.90;;;3.90;;
20084;SDS011;10202;48.474;9.138;2023-06-19T04:42:26;3.83;;;3.20;;
20084;SDS011;10202;48.474;9.138;2023-06-19T04:44:57;3.33;;;3.03;;
20084;SDS011;10202;48.474;9.138;2023-06-19T04:47:24;4.00;;;3.10;;
20084;SDS011;10202;48.474;9.138;2023-06-19T04:49:57;3.63;;;2.83;;
20084;SDS011;10202;48.474;9.138;2023-06-19T04:52:25;2.90;;;2.60;;
20084;SDS011;10202;48.474;9.138;2023-06-19T04:54:57;4.22;;;2.65;;
20084;SDS011;10202;48.474;9.138;2023-06-19T04:57:25;2.90;;;2.60;;
20084;SDS011;10202;48.474;9.138;2023-06-19T04:59:55;3.15;;;2.50;;
20084;SDS011;10202;48.474;9.138;2023-06-19T05:02:21;6.22;;;2.97;;
20084;SDS011;10202;48.474;9.138;2023-06-19T05:04:49;7.93;;;3.03;;
20084;SDS011;10202;48.474;9.138;2023-06-19T05:07:14;3.10;;;2.63;;
20084;SDS011;10202;48.474;9.138;2023-06-19T05:09:43;3.40;;;2.47;;
20084;SDS011;10202;48.474;9.138;2023-06-19T05:12:11;4.15;;;3.25;;
20084;SDS011;10202;48.474;9.138;2023-06-19T05:14:39;3.47;;;2.97;;
20084;SDS011;10202;48.474;9.138;2023-06-19T05:17:05;6.50;;;2.97;;
20084;SDS011;10202;48.474;9.138;2023-06-19T05:19:33;3.22;;;2.85;;
20084;SDS011;10202;48.474;9.138;2023-06-19T05:21:58;4.00;;;2.80;;
20084;SDS011;10202;48.474;9.138;2023-06-19T05:24:29;3.38;;;3.05;;
20084;SDS011;10202;48.474;9.138;2023-06-19T05:26:57;3.17;;;2.88;;
20084;SDS011;10202;48.474;9.138;2023-06-19T05:29:25;3.75;;;2.50;;
20084;SDS011;10202;48.474;9.138;2023-06-19T05:31:51;4.55;;;2.60;;
20084;SDS011;10202;48.474;9.138;2023-06-19T05:34:41;3.08;;;2.78;;
20084;SDS011;10202;48.474;9.138;2023-06-19T05:37:07;4.28;;;3.17;;
20084;SDS011;10202;48.474;9.138;2023-06-19T05:39:32;5.10;;;3.40;;
20084;SDS011;10202;48.474;9.138;2023-06-19T05:42:01;3.60;;;3.30;;
20084;SDS011;10202;48.474;9.138;2023-06-19T05:44:27;4.90;;;3.58;;
20084;SDS011;10202;48.474;9.138;2023-06-19T05:46:54;4.72;;;4.20;;
20084;SDS011;10202;48.474;9.138;2023-06-19T05:49:27;7.03;;;3.88;;
20084;SDS011;10202;48.474;9.138;2023-06-19T05:51:54;6.10;;;3.58;;
20084;SDS011;10202;48.474;9.138;2023-06-19T05:54:24;6.05;;;3.65;;
20084;SDS011;10202;48.474;9.138;2023-06-19T05:56:51;4.65;;;3.60;;
20084;SDS011;10202;48.474;9.138;2023-06-19T05:59:17;4.90;;;3.75;;
20084;SDS011;10202;48.474;9.138;2023-06-19T06:01:45;7.63;;;3.85;;
20084;SDS011;10202;48.474;9.138;2023-06-19T07:13:03;3.72;;;3.03;;
20084;SDS011;10202;48.474;9.138;2023-06-19T07:15:29;4.07;;;3.28;;
20084;SDS011;10202;48.474;9.138;2023-06-19T07:17:55;4.30;;;3.80;;
20084;SDS011;10202;48.474;9.138;2023-06-19T07:20:21;3.90;;;3.22;;
20084;SDS011;10202;48.474;9.138;2023-06-19T07:22:47;3.65;;;3.35;;
20084;SDS011;10202;48.474;9.138;2023-06-19T07:25:14;5.75;;;3.55;;
20084;SDS011;10202;48.474;9.138;2023-06-19T07:27:41;3.60;;;3.30;;
20084;SDS011;10202;48.474;9.138;2023-06-19T07:30:06;3.63;;;3.28;;
20084;SDS011;10202;48.474;9.138;2023-06-19T07:32:32;3.90;;;3.50;;
20084;SDS011;10202;48.474;9.138;2023-06-19T07:35:00;5.57;;;3.67;;
20084;SDS011;10202;48.474;9.138;2023-06-19T07:37:26;3.53;;;3.22;;
20084;SDS011;10202;48.474;9.138;2023-06-19T07:39:54;3.83;;;3.33;;
20084;SDS011;10202;48.474;9.138;2023-06-19T07:42:25;3.55;;;3.22;;
20084;SDS011;10202;48.474;9.138;2023-06-19T07:44:53;3.30;;;3.00;;
20084;SDS011;10202;48.474;9.138;2023-06-19T07:47:21;4.43;;;3.25;;
20084;SDS011;10202;48.474;9.138;2023-06-19T07:49:51;4.85;;;3.65;;
20084;SDS011;10202;48.474;9.138;2023-06-19T07:52:19;3.65;;;3.00;;
20084;SDS011;10202;48.474;9.138;2023-06-19T07:54:52;5.55;;;3.80;;
20084;SDS011;10202;48.474;9.138;2023-06-19T07:57:24;4.05;;;3.65;;
20084;SDS011;10202;48.474;9.138;2023-06-19T07:59:53;4.10;;;3.70;;
20084;SDS011;10202;48.474;9.138;2023-06-19T08:02:19;3.65;;;3.28;;
20084;SDS011;10202;48.474;9.138;2023-06-19T08:04:45;4.07;;;3.67;;
20084;SDS011;10202;48.474;9.138;2023-06-19T08:07:11;3.55;;;3.22;;
20084;SDS011;10202;48.474;9.138;2023-06-19T08:09:39;5.30;;;3.33;;
20084;SDS011;10202;48.474;9.138;2023-06-19T08:12:05;4.55;;;3.30;;
20084;SDS011;10202;48.474;9.138;2023-06-19T08:14:31;3.70;;;3.22;;
20084;SDS011;10202;48.474;9.138;2023-06-19T08:16:57;4.13;;;3.72;;
20084;SDS011;10202;48.474;9.138;2023-06-19T08:19:29;4.05;;;3.65;;
20084;SDS011;10202;48.474;9.138;2023-06-19T08:21:57;3.70;;;3.35;;
20084;SDS011;10202;48.474;9.138;2023-06-19T08:24:25;3.88;;;3.58;;
20084;SDS011;10202;48.474;9.138;2023-06-19T08:26:51;6.45;;;3.65;;
20084;SDS011;10202;48.474;9.138;2023-06-19T08:29:17;6.07;;;4.05;;
20084;SDS011;10202;48.474;9.138;2023-06-19T08:31:46;3.60;;;3.30;;
20084;SDS011;10202;48.474;9.138;2023-06-19T08:34:12;5.47;;;3.10;;
20084;SDS011;10202;48.474;9.138;2023-06-19T08:36:37;6.60;;;3.50;;
20084;SDS011;10202;48.474;9.138;2023-06-19T08:39:03;4.05;;;2.97;;
20084;SDS011;10202;48.474;9.138;2023-06-19T08:41:28;3.50;;;3.05;;
20084;SDS011;10202;48.474;9.138;2023-06-19T08:43:56;3.35;;;3.05;;
20084;SDS011;10202;48.474;9.138;2023-06-19T08:46:23;4.32;;;2.97;;
20084;SDS011;10202;48.474;9.138;2023-06-19T08:48:54;4.53;;;3.00;;
20084;SDS011;10202;48.474;9.138;2023-06-19T08:51:22;8.15;;;3.47;;
20084;SDS011;10202;48.474;9.138;2023-06-19T08:53:49;5.43;;;3.42;;
20084;SDS011;10202;48.474;9.138;2023-06-19T13:37:43;4.32;;;3.50;;
20084;SDS011;10202;48.474;9.138;2023-06-19T13:40:09;3.38;;;3.08;;
20084;SDS011;10202;48.474;9.138;2023-06-19T13:42:39;5.00;;;3.67;;
20084;SDS011;10202;48.474;9.138;2023-06-19T13:45:12;4.13;;;3.67;;
20084;SDS011;10202;48.474;9.138;2023-06-19T13:47:45;5.53;;;4.32;;
20084;SDS011;10202;48.474;9.138;2023-06-19T13:50:11;4.40;;;4.00;;
20084;SDS011;10202;48.474;9.138;2023-06-19T13:52:43;12.98;;;3.92;;
20084;SDS011;10202;48.474;9.138;2023-06-19T13:55:12;4.28;;;3.90;;
20084;SDS011;10202;48.474;9.138;2023-06-19T13:57:41;6.38;;;4.00;;
20084;SDS011;10202;48.474;9.138;2023-06-19T14:00:12;4.72;;;4.32;;
20084;SDS011;10202;48.474;9.138;2023-06-19T14:02:44;5.63;;;4.47;;
20084;SDS011;10202;48.474;9.138;2023-06-19T14:05:14;5.00;;;4.03;;
20084;SDS011;10202;48.474;9.138;2023-06-19T14:07:44;5.10;;;4.45;;
20084;SDS011;10202;48.474;9.138;2023-06-19T14:10:12;4.90;;;4.40;;
20084;SDS011;10202;48.474;9.138;2023-06-19T14:12:42;4.63;;;4.22;;
20084;SDS011;10202;48.474;9.138;2023-06-19T14:15:10;5.00;;;4.50;;
20084;SDS011;10202;48.474;9.138;2023-06-19T14:17:36;5.85;;;4.20;;
20084;SDS011;10202;48.474;9.138;2023-06-19T14:20:02;4.70;;;4.13;;
20084;SDS011;10202;48.474;9.138;2023-06-19T14:22:30;4.90;;;4.18;;
20084;SDS011;10202;48.474;9.138;2023-06-19T14:25:01;4.65;;;4.25;;
20084;SDS011;10202;48.474;9.138;2023-06-19T14:27:31;5.82;;;4.72;;
20084;SDS011;10202;48.474;9.138;2023-06-19T14:29:59;5.72;;;4.28;;
20084;SDS011;10202;48.474;9.138;2023-06-19T14:32:27;6.55;;;4.35;;
20084;SDS011;10202;48.474;9.138;2023-06-19T14:34:53;4.90;;;4.38;;
20084;SDS011;10202;48.474;9.138;2023-06-19T14:37:21;5.05;;;4.55;;
20084;SDS011;10202;48.474;9.138;2023-06-19T14:39:51;5.63;;;4.72;;
20084;SDS011;10202;48.474;9.138;2023-06-19T14:42:17;6.00;;;4.68;;
20084;SDS011;10202;48.474;9.138;2023-06-19T14:44:42;5.80;;;4.88;;
20084;SDS011;10202;48.474;9.138;2023-06-19T14:47:08;5.30;;;4.80;;
20084;SDS011;10202;48.474;9.138;2023-06-19T14:49:36;5.30;;;4.80;;
20084;SDS011;10202;48.474;9.138;2023-06-19T14:52:04;8.23;;;4.75;;
20084;SDS011;10202;48.474;9.138;2023-06-19T14:54:33;5.70;;;5.18;;
20084;SDS011;10202;48.474;9.138;2023-06-19T14:57:01;5.20;;;4.70;;
20084;SDS011;10202;48.474;9.138;2023-06-19T14:59:31;5.95;;;4.47;;
20084;SDS011;10202;48.474;9.138;2023-06-19T15:02:02;5.18;;;4.63;;
20084;SDS011;10202;48.474;9.138;2023-06-19T15:04:32;5.00;;;4.38;;
20084;SDS011;10202;48.474;9.138;2023-06-19T15:07:00;4.97;;;4.57;;
20084;SDS011;10202;48.474;9.138;2023-06-19T15:09:33;5.13;;;4.70;;
20084;SDS011;10202;48.474;9.138;2023-06-19T15:12:03;5.72;;;4.57;;
20084;SDS011;10202;48.474;9.138;2023-06-19T15:14:33;6.18;;;4.80;;
20084;SDS011;10202;48.474;9.138;2023-06-19T15:17:00;5.63;;;5.13;;
20084;SDS011;10202;48.474;9.138;2023-06-19T15:19:26;4.57;;;4.18;;
20084;SDS011;10202;48.474;9.138;2023-06-19T15:21:51;4.65;;;4.10;;
20084;SDS011;10202;48.474;9.138;2023-06-19T15:24:19;4.53;;;4.13;;
20084;SDS011;10202;48.474;9.138;2023-06-19T15:26:45;4.72;;;4.07;;
20084;SDS011;10202;48.474;9.138;2023-06-19T15:29:12;7.40;;;4.65;;
20084;SDS011;10202;48.474;9.138;2023-06-19T15:31:40;6.18;;;4.53;;
20084;SDS011;10202;48.474;9.138;2023-06-19T15:34:11;4.50;;;4.10;;
20084;SDS011;10202;48.474;9.138;2023-06-19T15:36:37;5.65;;;4.30;;
20084;SDS011;10202;48.474;9.138;2023-06-19T15:39:05;7.15;;;4.82;;
20084;SDS011;10202;48.474;9.138;2023-06-19T15:41:35;8.23;;;4.75;;
20084;SDS011;10202;48.474;9.138;2023-06-19T15:44:00;6.40;;;3.95;;
20084;SDS011;10202;48.474;9.138;2023-06-19T15:46:26;5.07;;;4.47;;
20084;SDS011;10202;48.474;9.138;2023-06-19T15:48:54;6.75;;;5.30;;
20084;SDS011;10202;48.474;9.138;2023-06-19T15:51:23;8.27;;;4.82;;
20084;SDS011;10202;48.474;9.138;2023-06-19T15:53:51;5.25;;;4.75;;
20084;SDS011;10202;48.474;9.138;2023-06-19T15:56:22;6.60;;;4.75;;
20084;SDS011;10202;48.474;9.138;2023-06-19T15:58:48;4.90;;;4.50;;
20084;SDS011;10202;48.474;9.138;2023-06-19T16:01:16;9.05;;;4.50;;
20084;SDS011;10202;48.474;9.138;2023-06-19T16:03:47;7.50;;;4.00;;
20084;SDS011;10202;48.474;9.138;2023-06-19T16:06:13;4.82;;;3.90;;
20084;SDS011;10202;48.474;9.138;2023-06-19T16:08:43;6.85;;;3.78;;
20084;SDS011;10202;48.474;9.138;2023-06-19T16:11:13;4.60;;;3.63;;
20084;SDS011;10202;48.474;9.138;2023-06-19T16:13:44;5.47;;;3.85;;
20084;SDS011;10202;48.474;9.138;2023-06-19T16:16:10;5.35;;;4.38;;
20084;SDS011;10202;48.474;9.138;2023-06-19T16:18:40;4.60;;;3.95;;
20084;SDS011;10202;48.474;9.138;2023-06-19T16:21:05;5.07;;;3.70;;
20084;SDS011;10202;48.474;9.138;2023-06-19T16:23:34;4.25;;;3.83;;
20084;SDS011;10202;48.474;9.138;2023-06-19T16:26:04;5.88;;;4.25;;
20084;SDS011;10202;48.474;9.138;2023-06-19T16:28:32;4.20;;;3.80;;
20084;SDS011;10202;48.474;9.138;2023-06-19T16:31:02;5.63;;;4.53;;
20084;SDS011;10202;48.474;9.138;2023-06-19T16:33:32;6.20;;;4.30;;
20084;SDS011;10202;48.474;9.138;2023-06-19T16:36:01;4.75;;;4.20;;
20084;SDS011;10202;48.474;9.138;2023-06-19T16:38:29;5.80;;;4.53;;
20084;SDS011;10202;48.474;9.138;2023-06-19T16:41:02;4.47;;;4.07;;
20084;SDS011;10202;48.474;9.138;2023-06-19T16:43:32;5.38;;;4.13;;
20084;SDS011;10202;48.474;9.138;2023-06-19T16:45:59;7.07;;;4.60;;
20084;SDS011;10202;48.474;9.138;2023-06-19T16:48:27;5.60;;;4.50;;
20084;SDS011;10202;48.474;9.138;2023-06-19T16:50:56;6.18;;;4.57;;
20084;SDS011;10202;48.474;9.138;2023-06-19T16:53:24;5.05;;;4.55;;
20084;SDS011;10202;48.474;9.138;2023-06-19T16:55:55;5.65;;;4.25;;
20084;SDS011;10202;48.474;9.138;2023-06-19T16:58:22;5.85;;;4.00;;
20084;SDS011;10202;48.474;9.138;2023-06-19T17:00:51;5.95;;;4.15;;
20084;SDS011;10202;48.474;9.138;2023-06-19T17:03:20;5.50;;;4.50;;
20084;SDS011;10202;48.474;9.138;2023-06-19T17:05:48;5.10;;;4.47;;
20084;SDS011;10202;48.474;9.138;2023-06-19T17:08:14;5.28;;;4.65;;
20084;SDS011;10202;48.474;9.138;2023-06-19T17:10:41;5.82;;;4.13;;
20084;SDS011;10202;48.474;9.138;2023-06-19T17:13:09;5.80;;;4.47;;
20084;SDS011;10202;48.474;9.138;2023-06-19T17:15:42;5.50;;;4.82;;
20084;SDS011;10202;48.474;9.138;2023-06-19T17:18:10;5.90;;;4.03;;
20084;SDS011;10202;48.474;9.138;2023-06-19T17:20:38;4.88;;;4.18;;
20084;SDS011;10202;48.474;9.138;2023-06-19T17:23:06;7.15;;;4.60;;
20084;SDS011;10202;48.474;9.138;2023-06-19T17:25:39;5.18;;;4.45;;
20084;SDS011;10202;48.474;9.138;2023-06-19T17:28:05;5.57;;;4.97;;
20084;SDS011;10202;48.474;9.138;2023-06-19T17:30:33;7.68;;;4.78;;
20084;SDS011;10202;48.474;9.138;2023-06-19T17:33:06;5.55;;;4.35;;
20084;SDS011;10202;48.474;9.138;2023-06-19T17:35:32;4.97;;;4.40;;
20084;SDS011;10202;48.474;9.138;2023-06-19T17:38:00;4.68;;;4.15;;
20084;SDS011;10202;48.474;9.138;2023-06-19T17:40:29;5.15;;;4.50;;
20084;SDS011;10202;48.474;9.138;2023-06-19T17:42:55;6.10;;;4.10;;
20084;SDS011;10202;48.474;9.138;2023-06-19T17:45:20;5.07;;;4.30;;
20084;SDS011;10202;48.474;9.138;2023-06-19T17:47:48;6.30;;;3.83;;
20084;SDS011;10202;48.474;9.138;2023-06-19T17:50:14;5.05;;;4.55;;
20084;SDS011;10202;48.474;9.138;2023-06-19T17:52:42;6.28;;;5.05;;
20084;SDS011;10202;48.474;9.138;2023-06-19T17:55:12;4.93;;;4.43;;
20084;SDS011;10202;48.474;9.138;2023-06-19T17:57:40;4.90;;;4.40;;
20084;SDS011;10202;48.474;9.138;2023-06-19T18:00:13;5.55;;;4.30;;
20084;SDS011;10202;48.474;9.138;2023-06-19T18:02:41;5.72;;;4.40;;
20084;SDS011;10202;48.474;9.138;2023-06-19T18:05:10;4.85;;;4.35;;
20084;SDS011;10202;48.474;9.138;2023-06-19T18:07:38;6.25;;;4.43;;
20084;SDS011;10202;48.474;9.138;2023-06-19T18:10:04;5.38;;;4.25;;
20084;SDS011;10202;48.474;9.138;2023-06-19T18:12:33;4.80;;;4.40;;
20084;SDS011;10202;48.474;9.138;2023-06-19T18:14:59;4.30;;;3.90;;
20084;SDS011;10202;48.474;9.138;2023-06-19T18:17:29;6.72;;;4.40;;
20084;SDS011;10202;48.474;9.138;2023-06-19T18:20:01;5.50;;;4.45;;
20084;SDS011;10202;48.474;9.138;2023-06-19T18:22:27;4.60;;;4.20;;
20084;SDS011;10202;48.474;9.138;2023-06-19T18:24:57;4.85;;;4.35;;
20084;SDS011;10202;48.474;9.138;2023-06-19T18:27:27;5.60;;;4.38;;
20084;SDS011;10202;48.474;9.138;2023-06-19T18:29:53;7.10;;;4.90;;
20084;SDS011;10202;48.474;9.138;2023-06-19T18:32:26;6.78;;;4.93;;
20084;SDS011;10202;48.474;9.138;2023-06-19T18:34:53;6.28;;;4.82;;
20084;SDS011;10202;48.474;9.138;2023-06-19T18:37:23;8.70;;;4.93;;
20084;SDS011;10202;48.474;9.138;2023-06-19T18:39:56;6.50;;;5.43;;
20084;SDS011;10202;48.474;9.138;2023-06-19T18:42:22;6.30;;;5.20;;
20084;SDS011;10202;48.474;9.138;2023-06-19T18:44:51;8.13;;;5.28;;
20084;SDS011;10202;48.474;9.138;2023-06-19T18:47:17;6.43;;;5.47;;
20084;SDS011;10202;48.474;9.138;2023-06-19T18:49:48;7.18;;;6.13;;
20084;SDS011;10202;48.474;9.138;2023-06-19T18:52:16;7.47;;;5.65;;
20084;SDS011;10202;48.474;9.138;2023-06-19T18:54:46;6.03;;;5.40;;
20084;SDS011;10202;48.474;9.138;2023-06-19T18:57:12;7.32;;;5.38;;
20084;SDS011;10202;48.474;9.138;2023-06-19T18:59:41;10.68;;;5.35;;
20084;SDS011;10202;48.474;9.138;2023-06-19T19:02:11;8.95;;;4.70;;
20084;SDS011;10202;48.474;9.138;2023-06-19T19:04:41;5.63;;;5.00;;
20084;SDS011;10202;48.474;9.138;2023-06-19T19:07:12;6.82;;;5.10;;
20084;SDS011;10202;48.474;9.138;2023-06-19T19:09:40;5.53;;;5.03;;
20084;SDS011;10202;48.474;9.138;2023-06-19T19:12:09;8.23;;;5.70;;
20084;SDS011;10202;48.474;9.138;2023-06-19T19:14:41;8.98;;;5.45;;
20084;SDS011;10202;48.474;9.138;2023-06-19T19:17:09;7.70;;;5.43;;
20084;SDS011;10202;48.474;9.138;2023-06-19T19:19:35;6.03;;;5.40;;
20084;SDS011;10202;48.474;9.138;2023-06-19T19:22:05;14.32;;;6.13;;
20084;SDS011;10202;48.474;9.138;2023-06-19T19:24:37;7.13;;;5.80;;
20084;SDS011;10202;48.474;9.138;2023-06-19T19:27:08;6.80;;;6.10;;
20084;SDS011;10202;48.474;9.138;2023-06-19T19:29:39;6.80;;;5.55;;
20084;SDS011;10202;48.474;9.138;2023-06-19T19:32:08;7.05;;;5.95;;
20084;SDS011;10202;48.474;9.138;2023-06-19T19:34:37;8.32;;;6.00;;
20084;SDS011;10202;48.474;9.138;2023-06-19T19:37:05;6.55;;;5.57;;
20084;SDS011;10202;48.474;9.138;2023-06-19T19:39:35;6.30;;;5.70;;
20084;SDS011;10202;48.474;9.138;2023-06-19T19:42:04;6.45;;;5.80;;
20084;SDS011;10202;48.474;9.138;2023-06-19T19:44:30;6.45;;;5.30;;
20084;SDS011;10202;48.474;9.138;2023-06-19T19:47:01;5.45;;;4.95;;
20084;SDS011;10202;48.474;9.138;2023-06-19T19:49:27;6.28;;;4.85;;
20084;SDS011;10202;48.474;9.138;2023-06-19T19:51:52;6.20;;;5.32;;
20084;SDS011;10202;48.474;9.138;2023-06-19T19:54:23;5.95;;;5.32;;
20084;SDS011;10202;48.474;9.138;2023-06-19T19:56:56;6.68;;;4.72;;
20084;SDS011;10202;48.474;9.138;2023-06-19T19:59:30;6.07;;;5.38;;
20084;SDS011;10202;48.474;9.138;2023-06-19T20:01:59;6.88;;;4.95;;
20084;SDS011;10202;48.474;9.138;2023-06-19T20:04:28;6.75;;;5.45;;
20084;SDS011;10202;48.474;9.138;2023-06-19T20:06:57;5.95;;;5.30;;
20084;SDS011;10202;48.474;9.138;2023-06-19T20:09:29;9.35;;;5.22;;
20084;SDS011;10202;48.474;9.138;2023-06-19T20:11:55;6.80;;;5.43;;
20084;SDS011;10202;48.474;9.138;2023-06-19T20:14:31;7.18;;;5.18;;
20084;SDS011;10202;48.474;9.138;2023-06-19T20:16:59;7.50;;;5.72;;
20084;SDS011;10202;48.474;9.138;2023-06-19T20:19:27;8.10;;;5.20;;
20084;SDS011;10202;48.474;9.138;2023-06-19T20:21:59;6.07;;;5.03;;
20084;SDS011;10202;48.474;9.138;2023-06-19T20:24:27;6.50;;;5.03;;
20084;SDS011;10202;48.474;9.138;2023-06-19T20:27:00;8.73;;;5.65;;
20084;SDS011;10202;48.474;9.138;2023-06-19T20:29:31;6.82;;;4.97;;
20084;SDS011;10202;48.474;9.138;2023-06-19T20:32:00;6.20;;;5.20;;
20084;SDS011;10202;48.474;9.138;2023-06-19T20:34:28;6.38;;;4.60;;
20084;SDS011;10202;48.474;9.138;2023-06-19T20:36:59;8.65;;;5.50;;
20084;SDS011;10202;48.474;9.138;2023-06-19T20:39:27;7.93;;;5.20;;
20084;SDS011;10202;48.474;9.138;2023-06-19T20:41:55;7.20;;;5.25;;
20084;SDS011;10202;48.474;9.138;2023-06-19T20:44:27;7.43;;;5.40;;
20084;SDS011;10202;48.474;9.138;2023-06-19T20:46:57;6.25;;;5.43;;
20084;SDS011;10202;48.474;9.138;2023-06-19T20:49:23;5.65;;;5.13;;
20084;SDS011;10202;48.474;9.138;2023-06-19T20:51:55;8.82;;;5.43;;
20084;SDS011;10202;48.474;9.138;2023-06-19T20:54:23;7.63;;;5.90;;
20084;SDS011;10202;48.474;9.138;2023-06-19T20:56:49;5.85;;;5.25;;
20084;SDS011;10202;48.474;9.138;2023-06-19T20:59:19;5.95;;;5.00;;
20084;SDS011;10202;48.474;9.138;2023-06-19T21:01:47;6.50;;;5.70;;
20084;SDS011;10202;48.474;9.138;2023-06-19T21:04:15;11.20;;;5.40;;
20084;SDS011;10202;48.474;9.138;2023-06-19T21:06:41;9.38;;;5.50;;
20084;SDS011;10202;48.474;9.138;2023-06-19T21:09:08;6.05;;;5.00;;
20084;SDS011;10202;48.474;9.138;2023-06-19T21:11:36;7.05;;;5.28;;
20084;SDS011;10202;48.474;9.138;2023-06-19T21:14:07;6.20;;;4.90;;
20084;SDS011;10202;48.474;9.138;2023-06-19T21:16:34;6.85;;;5.50;;
20084;SDS011;10202;48.474;9.138;2023-06-19T21:19:02;6.22;;;5.43;;
20084;SDS011;10202;48.474;9.138;2023-06-19T21:21:28;6.38;;;5.78;;
20084;SDS011;10202;48.474;9.138;2023-06-19T21:23:54;6.53;;;5.53;;
20084;SDS011;10202;48.474;9.138;2023-06-19T21:26:22;6.05;;;5.10;;
20084;SDS011;10202;48.474;9.138;2023-06-19T21:28:48;9.68;;;4.90;;
20084;SDS011;10202;48.474;9.138;2023-06-19T21:31:15;6.05;;;5.25;;
20084;SDS011;10202;48.474;9.138;2023-06-19T21:33:44;5.82;;;5.22;;
20084;SDS011;10202;48.474;9.138;2023-06-19T21:36:14;5.70;;;5.20;;
20084;SDS011;10202;48.474;9.138;2023-06-19T21:38:40;6.25;;;5.00;;
20084;SDS011;10202;48.474;9.138;2023-06-19T21:41:08;5.90;;;4.72;;
20084;SDS011;10202;48.474;9.138;2023-06-19T21:43:36;6.85;;;5.22;;
20084;SDS011;10202;48.474;9.138;2023-06-19T21:46:01;8.35;;;5.47;;
20084;SDS011;10202;48.474;9.138;2023-06-19T21:48:27;7.57;;;5.05;;
20084;SDS011;10202;48.474;9.138;2023-06-19T21:50:58;6.50;;;5.45;;
20084;SDS011;10202;48.474;9.138;2023-06-19T21:53:23;6.35;;;5.60;;
20084;SDS011;10202;48.474;9.138;2023-06-19T21:55:51;8.55;;;5.47;;
20084;SDS011;10202;48.474;9.138;2023-06-19T21:58:17;6.88;;;5.88;;
20084;SDS011;10202;48.474;9.138;2023-06-19T22:00:42;12.13;;;5.90;;
20084;SDS011;10202;48.474;9.138;2023-06-19T22:03:10;7.43;;;6.00;;
20084;SDS011;10202;48.474;9.138;2023-06-19T22:05:38;8.95;;;6.07;;
20084;SDS011;10202;48.474;9.138;2023-06-19T22:08:06;6.47;;;5.88;;
20084;SDS011;10202;48.474;9.138;2023-06-19T22:10:34;9.45;;;6.50;;
20084;SDS011;10202;48.474;9.138;2023-06-19T22:13:00;7.10;;;5.75;;
20084;SDS011;10202;48.474;9.138;2023-06-19T22:15:26;8.02;;;6.18;;
20084;SDS011;10202;48.474;9.138;2023-06-19T22:17:51;7.13;;;6.07;;
20084;SDS011;10202;48.474;9.138;2023-06-19T22:20:19;6.55;;;5.60;;
20084;SDS011;10202;48.474;9.138;2023-06-19T22:22:45;6.40;;;5.60;;
20084;SDS011;10202;48.474;9.138;2023-06-19T22:25:12;7.80;;;6.00;;
20084;SDS011;10202;48.474;9.138;2023-06-19T22:27:40;7.40;;;5.60;;
20084;SDS011;10202;48.474;9.138;2023-06-19T22:30:09;7.13;;;6.18;;
20084;SDS011;10202;48.474;9.138;2023-06-19T22:32:40;7.22;;;6.20;;
20084;SDS011;10202;48.474;9.138;2023-06-19T22:35:06;9.57;;;6.15;;
20084;SDS011;10202;48.474;9.138;2023-06-19T22:37:32;8.10;;;6.68;;
20084;SDS011;10202;48.474;9.138;2023-06-19T22:40:02;9.18;;;6.32;;
20084;SDS011;10202;48.474;9.138;2023-06-19T22:42:32;10.23;;;6.10;;
20084;SDS011;10202;48.474;9.138;2023-06-19T22:45:03;8.15;;;6.40;;
20084;SDS011;10202;48.474;9.138;2023-06-19T22:47:34;9.80;;;5.93;;
20084;SDS011;10202;48.474;9.138;2023-06-19T22:50:04;7.43;;;6.15;;
20084;SDS011;10202;48.474;9.138;2023-06-19T22:52:31;7.85;;;6.22;;
20084;SDS011;10202;48.474;9.138;2023-06-19T22:55:00;6.75;;;6.05;;
20084;SDS011;10202;48.474;9.138;2023-06-19T22:57:26;8.45;;;6.30;;
20084;SDS011;10202;48.474;9.138;2023-06-19T22:59:59;6.65;;;5.63;;
20084;SDS011;10202;48.474;9.138;2023-06-19T23:02:41;7.65;;;5.72;;
20084;SDS011;10202;48.474;9.138;2023-06-19T23:05:11;6.90;;;6.10;;
20084;SDS011;10202;48.474;9.138;2023-06-19T23:07:40;6.75;;;6.05;;
20084;SDS011;10202;48.474;9.138;2023-06-19T23:10:06;6.53;;;5.63;;
20084;SDS011;10202;48.474;9.138;2023-06-19T23:12:33;7.47;;;5.50;;
20084;SDS011;10202;48.474;9.138;2023-06-19T23:15:01;5.47;;;4.97;;
20084;SDS011;10202;48.474;9.138;2023-06-19T23:17:27;8.70;;;5.60;;
20084;SDS011;10202;48.474;9.138;2023-06-19T23:58:27;6.95;;;5.80;;
